createdAt,value
2022-10-05T00:00:23.184Z,101444.38
2022-10-05T00:02:52.429Z,101450.41
2022-10-05T00:05:27.992Z,101455.56
2022-10-05T00:07:58.081Z,101452.00
2022-10-05T00:10:26.263Z,101450.13
2022-10-05T00:12:54.182Z,101456.31
2022-10-05T00:15:24.445Z,101448.25
2022-10-05T00:17:52.353Z,101446.25
2022-10-05T00:20:23.885Z,101445.28
2022-10-05T00:22:53.380Z,101454.31
2022-10-05T00:25:22.571Z,101450.88
2022-10-05T00:27:56.326Z,101441.84
2022-10-05T00:30:28.073Z,101430.94
2022-10-05T00:32:59.457Z,101437.00
2022-10-05T00:35:29.563Z,101429.09
2022-10-05T00:37:57.661Z,101429.94
2022-10-05T00:40:34.571Z,101434.53
2022-10-05T00:43:22.575Z,101433.50
2022-10-05T00:45:54.760Z,101431.81
2022-10-05T00:48:26.521Z,101421.66
2022-10-05T00:51:13.131Z,101423.66
2022-10-05T00:53:45.206Z,101417.59
2022-10-05T00:56:30.309Z,101407.44
2022-10-05T00:59:07.065Z,101403.00
2022-10-05T01:01:40.077Z,101399.41
2022-10-05T01:04:14.585Z,101396.00
2022-10-05T01:06:49.456Z,101389.78
2022-10-05T01:09:23.109Z,101388.97
2022-10-05T01:11:58.139Z,101382.50
2022-10-05T01:14:29.388Z,101387.22
2022-10-05T01:17:03.060Z,101389.94
2022-10-05T01:19:45.934Z,101387.94
2022-10-05T01:22:23.675Z,101391.53
2022-10-05T01:25:03.851Z,101381.63
2022-10-05T01:27:41.069Z,101389.69
2022-10-05T01:30:13.622Z,101383.38
2022-10-05T01:32:47.574Z,101375.91
2022-10-05T01:35:24.607Z,101377.22
2022-10-05T01:38:00.197Z,101365.47
2022-10-05T01:40:35.512Z,101364.59
2022-10-05T01:43:11.857Z,101368.34
2022-10-05T01:45:46.944Z,101369.34
2022-10-05T01:48:20.790Z,101370.47
2022-10-05T01:50:55.293Z,101375.06
2022-10-05T01:53:29.456Z,101377.78
2022-10-05T01:56:03.793Z,101372.75
2022-10-05T01:58:40.003Z,101373.88
2022-10-05T02:01:11.340Z,101364.75
2022-10-05T02:03:41.461Z,101358.84
2022-10-05T02:06:12.711Z,101353.41
2022-10-05T02:08:43.341Z,101354.38
2022-10-05T02:11:13.645Z,101343.66
2022-10-05T02:13:44.670Z,101343.66
2022-10-05T02:16:17.791Z,101335.78
2022-10-05T02:18:50.998Z,101341.06
2022-10-05T02:21:20.064Z,101343.66
2022-10-05T02:23:50.460Z,101343.78
2022-10-05T02:26:19.009Z,101337.78
2022-10-05T02:28:50.871Z,101340.63
2022-10-05T02:31:22.762Z,101338.75
2022-10-05T02:33:50.830Z,101338.88
2022-10-05T02:36:21.837Z,101345.19
2022-10-05T02:39:02.225Z,101339.75
2022-10-05T02:41:39.705Z,101329.72
2022-10-05T02:44:13.366Z,101327.72
2022-10-05T02:46:47.005Z,101323.88
2022-10-05T02:49:21.914Z,101312.28
2022-10-05T02:51:54.362Z,101309.28
2022-10-05T02:54:33.436Z,101312.00
2022-10-05T02:57:05.151Z,101311.72
2022-10-05T02:59:37.768Z,101304.44
2022-10-05T03:02:13.610Z,101306.00
2022-10-05T03:04:46.122Z,101306.13
2022-10-05T03:07:17.304Z,101295.25
2022-10-05T03:09:49.785Z,101304.28
2022-10-05T03:12:30.153Z,101302.28
2022-10-05T03:15:05.088Z,101302.28
2022-10-05T03:17:37.896Z,101309.56
2022-10-05T03:20:16.187Z,101295.13
2022-10-05T03:22:49.795Z,101290.53
2022-10-05T03:25:37.847Z,101277.50
2022-10-05T03:28:09.983Z,101268.75
2022-10-05T03:30:43.678Z,101274.94
2022-10-05T03:33:16.113Z,101268.75
2022-10-05T03:35:49.921Z,101265.75
2022-10-05T03:38:22.202Z,101260.31
2022-10-05T03:40:57.110Z,101256.88
2022-10-05T03:43:37.409Z,101259.34
2022-10-05T03:46:11.376Z,101265.91
2022-10-05T03:48:42.990Z,101262.31
2022-10-05T03:51:17.214Z,101261.06
2022-10-05T03:53:47.280Z,101265.75
2022-10-05T03:56:17.797Z,101266.34
2022-10-05T03:58:51.547Z,101265.63
2022-10-05T04:01:24.204Z,101270.81
2022-10-05T04:03:55.390Z,101265.38
2022-10-05T04:06:25.966Z,101267.94
2022-10-05T04:08:57.392Z,101261.91
2022-10-05T04:11:28.407Z,101264.78
2022-10-05T04:14:00.426Z,101270.94
2022-10-05T04:16:32.821Z,101269.34
2022-10-05T04:19:04.193Z,101266.78
2022-10-05T04:21:35.292Z,101264.50
2022-10-05T04:24:07.763Z,101254.59
2022-10-05T04:26:39.707Z,101259.19
2022-10-05T04:29:15.107Z,101250.03
2022-10-05T04:31:58.377Z,101246.31
2022-10-05T04:34:45.000Z,101246.00
2022-10-05T04:37:19.574Z,101245.44
2022-10-05T04:39:55.972Z,101252.31
2022-10-05T04:42:30.694Z,101250.31
2022-10-05T04:45:10.562Z,101251.59
2022-10-05T04:48:04.146Z,101245.44
2022-10-05T04:50:40.737Z,101250.03
2022-10-05T04:53:16.270Z,101243.59
2022-10-05T04:55:52.485Z,101244.59
2022-10-05T04:58:27.926Z,101231.97
2022-10-05T05:01:07.478Z,101243.00
2022-10-05T05:03:51.584Z,101239.13
2022-10-05T05:06:30.501Z,101240.28
2022-10-05T05:09:28.277Z,101234.84
2022-10-05T05:12:20.174Z,101245.44
2022-10-05T05:15:17.695Z,101231.84
2022-10-05T05:17:58.036Z,101233.53
2022-10-05T05:20:34.841Z,101228.25
2022-10-05T05:23:07.220Z,101226.97
2022-10-05T05:25:40.425Z,101237.13
2022-10-05T05:28:17.753Z,101233.69
2022-10-05T05:30:49.159Z,101233.69
2022-10-05T05:33:23.015Z,101230.25
2022-10-05T05:36:25.469Z,101216.94
2022-10-05T05:39:00.128Z,101221.09
2022-10-05T05:41:32.063Z,101225.69
2022-10-05T05:44:07.255Z,101227.53
2022-10-05T05:47:01.791Z,101210.19
2022-10-05T05:49:32.185Z,101217.53
2022-10-05T05:52:05.694Z,101215.09
2022-10-05T05:54:38.513Z,101216.50
2022-10-05T05:57:11.446Z,101212.91
2022-10-05T05:59:48.633Z,101206.63
2022-10-05T06:02:20.486Z,101204.47
2022-10-05T06:04:52.313Z,101202.78
2022-10-05T06:07:30.168Z,101208.66
2022-10-05T06:10:01.715Z,101202.06
2022-10-05T06:12:32.997Z,101200.22
2022-10-05T06:15:04.356Z,101199.06
2022-10-05T06:17:38.362Z,101216.38
2022-10-05T06:20:13.154Z,101210.66
2022-10-05T06:22:44.221Z,101218.94
2022-10-05T06:25:20.442Z,101216.53
2022-10-05T06:28:03.114Z,101214.53
2022-10-05T06:30:37.930Z,101209.94
2022-10-05T06:33:12.855Z,101216.66
2022-10-05T06:35:51.572Z,101232.00
2022-10-05T06:38:37.551Z,101230.13
2022-10-05T06:41:13.158Z,101228.13
2022-10-05T06:43:51.334Z,101238.91
2022-10-05T06:46:24.035Z,101234.28
2022-10-05T06:49:13.072Z,101223.41
2022-10-05T06:51:46.465Z,101226.84
2022-10-05T06:54:24.927Z,101229.69
2022-10-05T06:56:58.235Z,101226.53
2022-10-05T06:59:31.462Z,101219.13
2022-10-05T07:02:06.325Z,101220.09
2022-10-05T07:04:57.190Z,101205.63
2022-10-05T07:07:27.786Z,101209.94
2022-10-05T07:10:09.086Z,101215.25
2022-10-05T07:12:51.223Z,101210.34
2022-10-05T07:15:38.037Z,101204.63
2022-10-05T07:18:17.057Z,101213.66
2022-10-05T07:20:50.745Z,101221.56
2022-10-05T07:23:25.960Z,101216.53
2022-10-05T07:26:03.334Z,101226.44
2022-10-05T07:28:36.019Z,101221.09
2022-10-05T07:31:07.986Z,101214.50
2022-10-05T07:33:41.873Z,101217.94
2022-10-05T07:36:32.246Z,101216.66
2022-10-05T07:39:03.516Z,101223.81
2022-10-05T07:41:40.196Z,101219.09
2022-10-05T07:44:13.449Z,101222.66
2022-10-05T07:46:51.115Z,101218.25
2022-10-05T07:49:24.485Z,101218.94
2022-10-05T07:51:56.483Z,101226.66
2022-10-05T07:54:28.486Z,101221.09
2022-10-05T07:57:03.132Z,101212.63
2022-10-05T07:59:35.816Z,101222.94
2022-10-05T08:02:08.310Z,101220.34
2022-10-05T08:04:41.870Z,101233.41
2022-10-05T08:07:14.608Z,101242.28
2022-10-05T08:09:45.494Z,101235.84
2022-10-05T08:12:37.045Z,101238.28
2022-10-05T08:15:08.390Z,101230.66
2022-10-05T08:17:45.444Z,101243.13
2022-10-05T08:20:36.955Z,101241.97
2022-10-05T08:23:13.357Z,101236.22
2022-10-05T08:25:47.549Z,101239.94
2022-10-05T08:28:20.867Z,101243.38
2022-10-05T08:30:58.174Z,101238.91
2022-10-05T08:33:28.652Z,101235.47
2022-10-05T08:36:04.827Z,101235.03
2022-10-05T08:38:34.109Z,101224.13
2022-10-05T08:41:29.766Z,101231.59
2022-10-05T08:44:36.698Z,101226.44
2022-10-05T08:47:17.025Z,101226.97
2022-10-05T08:50:11.579Z,101223.19
2022-10-05T08:52:56.021Z,101231.75
2022-10-05T08:55:33.297Z,101227.88
2022-10-05T08:58:24.606Z,101232.72
2022-10-05T09:00:58.876Z,101226.88
2022-10-05T09:03:58.581Z,101229.84
2022-10-05T09:07:02.074Z,101223.09
2022-10-05T09:09:51.214Z,101227.97
2022-10-05T09:13:07.113Z,101227.50
2022-10-05T09:15:44.216Z,101222.22
2022-10-05T09:18:36.223Z,101222.75
2022-10-05T09:21:08.042Z,101219.72
2022-10-05T09:23:39.668Z,101220.69
2022-10-05T09:26:10.367Z,101218.34
2022-10-05T09:28:51.886Z,101215.34
2022-10-05T09:31:29.440Z,101216.97
2022-10-05T09:34:30.591Z,101218.28
2022-10-05T09:37:28.833Z,101213.00
2022-10-05T09:40:29.057Z,101205.91
2022-10-05T09:43:34.895Z,101207.72
2022-10-05T09:46:26.193Z,101209.88
2022-10-05T09:49:11.640Z,101205.63
2022-10-05T09:52:06.974Z,101203.84
2022-10-05T09:54:52.353Z,101195.66
2022-10-05T09:57:53.090Z,101203.31
2022-10-05T10:00:26.518Z,101202.97
2022-10-05T10:03:33.270Z,101200.13
2022-10-05T10:06:35.136Z,101194.97
2022-10-05T10:09:14.952Z,101193.56
2022-10-05T10:12:15.224Z,101190.91
2022-10-05T10:15:38.042Z,101182.00
2022-10-05T10:18:15.577Z,101180.63
2022-10-05T10:21:00.328Z,101175.59
2022-10-05T10:23:42.862Z,101171.41
2022-10-05T10:26:40.681Z,101176.25
2022-10-05T10:29:50.053Z,101176.84
2022-10-05T10:32:44.198Z,101174.09
2022-10-05T10:35:32.159Z,101171.34
2022-10-05T10:38:31.069Z,101178.28
2022-10-05T10:41:25.458Z,101172.63
2022-10-05T10:44:11.135Z,101172.81
2022-10-05T10:46:46.281Z,101182.00
2022-10-05T10:49:26.541Z,101169.16
2022-10-05T10:52:11.714Z,101174.00
2022-10-05T10:55:00.430Z,101169.28
2022-10-05T10:57:38.282Z,101177.31
2022-10-05T11:00:25.235Z,101181.13
2022-10-05T11:03:09.083Z,101169.81
2022-10-05T11:05:53.970Z,101175.97
2022-10-05T11:08:47.473Z,101163.56
2022-10-05T11:11:27.175Z,101168.50
2022-10-05T11:14:21.341Z,101159.84
2022-10-05T11:17:08.181Z,101163.41
2022-10-05T11:20:04.060Z,101165.31
2022-10-05T11:22:43.074Z,101157.81
2022-10-05T11:25:52.093Z,101156.25
2022-10-05T11:28:39.725Z,101147.47
2022-10-05T11:31:45.976Z,101160.22
2022-10-05T11:34:45.582Z,101150.69
2022-10-05T11:37:41.026Z,101144.94
2022-10-05T11:40:35.018Z,101135.25
2022-10-05T11:43:28.700Z,101138.03
2022-10-05T11:46:07.689Z,101134.94
2022-10-05T11:48:53.395Z,101131.78
2022-10-05T11:51:30.264Z,101131.41
2022-10-05T11:54:08.011Z,101126.88
2022-10-05T11:56:37.402Z,101125.50
2022-10-05T11:59:13.355Z,101122.59
2022-10-05T12:01:46.974Z,101115.13
2022-10-05T12:04:20.137Z,101119.72
2022-10-05T12:07:02.954Z,101111.59
2022-10-05T12:10:05.683Z,101106.13
2022-10-05T12:12:37.770Z,101091.16
2022-10-05T12:15:13.745Z,101092.47
2022-10-05T12:17:45.216Z,101089.09
2022-10-05T12:20:18.597Z,101087.09
2022-10-05T12:22:49.422Z,101076.19
2022-10-05T12:25:22.718Z,101073.78
2022-10-05T12:27:53.545Z,101067.84
2022-10-05T12:30:27.700Z,101068.78
2022-10-05T12:33:02.345Z,101058.72
2022-10-05T12:35:48.047Z,101062.81
2022-10-05T12:38:23.064Z,101060.59
2022-10-05T12:40:54.684Z,101054.78
2022-10-05T12:43:26.910Z,101042.00
2022-10-05T12:46:02.181Z,101050.53
2022-10-05T12:48:40.106Z,101035.53
2022-10-05T12:51:13.492Z,101039.13
2022-10-05T12:53:50.514Z,101040.69
2022-10-05T12:56:25.449Z,101039.63
2022-10-05T12:58:57.458Z,101035.88
2022-10-05T13:01:35.206Z,101037.94
2022-10-05T13:04:18.448Z,101027.69
2022-10-05T13:06:59.186Z,101023.78
2022-10-05T13:09:35.217Z,101034.72
2022-10-05T13:12:07.625Z,101029.25
2022-10-05T13:14:50.519Z,101026.69
2022-10-05T13:17:22.989Z,101018.97
2022-10-05T13:19:57.119Z,101014.53
2022-10-05T13:22:35.523Z,101016.75
2022-10-05T13:25:22.045Z,101014.53
2022-10-05T13:27:54.875Z,101011.97
2022-10-05T13:30:23.444Z,101011.63
2022-10-05T13:32:55.908Z,101015.41
2022-10-05T13:35:33.995Z,101006.47
2022-10-05T13:38:11.211Z,101014.53
2022-10-05T13:40:43.432Z,101013.00
2022-10-05T13:43:20.203Z,101010.78
2022-10-05T13:45:55.719Z,101014.56
2022-10-05T13:48:44.211Z,101014.22
2022-10-05T13:51:17.107Z,101016.41
2022-10-05T13:53:49.528Z,101011.97
2022-10-05T13:56:22.103Z,101016.22
2022-10-05T13:58:54.244Z,101000.13
2022-10-05T14:01:36.100Z,101007.69
2022-10-05T14:04:11.865Z,101009.41
2022-10-05T14:06:40.289Z,101008.00
2022-10-05T14:09:14.768Z,101024.47
2022-10-05T14:11:49.738Z,101014.38
2022-10-05T14:14:25.373Z,101011.09
2022-10-05T14:16:54.802Z,101022.78
2022-10-05T14:19:27.991Z,101020.91
2022-10-05T14:22:01.187Z,101023.09
2022-10-05T14:24:43.661Z,101016.44
2022-10-05T14:27:21.199Z,101014.22
2022-10-05T14:29:57.001Z,101014.03
2022-10-05T14:32:27.122Z,101011.28
2022-10-05T14:35:05.108Z,101020.38
2022-10-05T14:37:43.265Z,101004.47
2022-10-05T14:40:28.747Z,101005.47
2022-10-05T14:42:57.368Z,101001.00
2022-10-05T14:45:26.812Z,101007.00
2022-10-05T14:48:00.199Z,100998.78
2022-10-05T14:50:29.782Z,100993.50
2022-10-05T14:53:16.678Z,100994.16
2022-10-05T14:55:58.133Z,100994.84
2022-10-05T14:58:46.976Z,101000.13
2022-10-05T15:01:18.897Z,100985.78
2022-10-05T15:03:57.946Z,100992.63
2022-10-05T15:06:31.161Z,100997.59
2022-10-05T15:09:30.249Z,100982.88
2022-10-05T15:12:01.616Z,100987.31
2022-10-05T15:14:32.501Z,100972.06
2022-10-05T15:17:03.580Z,100968.66
2022-10-05T15:19:42.205Z,100962.84
2022-10-05T15:22:20.146Z,100961.97
2022-10-05T15:24:57.812Z,100959.56
2022-10-05T15:27:35.857Z,100960.25
2022-10-05T15:30:11.339Z,100949.47
2022-10-05T15:32:50.020Z,100941.25
2022-10-05T15:35:50.195Z,100935.59
2022-10-05T15:38:22.045Z,100944.88
2022-10-05T15:40:59.650Z,100943.69
2022-10-05T15:43:46.605Z,100936.47
2022-10-05T15:46:19.095Z,100939.56
2022-10-05T15:48:53.355Z,100944.53
2022-10-05T15:51:43.606Z,100938.53
2022-10-05T15:54:31.915Z,100940.06
2022-10-05T15:57:03.578Z,100945.41
2022-10-05T15:59:38.657Z,100939.38
2022-10-05T16:02:16.037Z,100958.91
2022-10-05T16:04:49.107Z,100947.47
2022-10-05T16:07:39.283Z,100950.69
2022-10-05T16:10:14.879Z,100955.50
2022-10-05T16:12:48.782Z,100949.88
2022-10-05T16:15:26.338Z,100948.84
2022-10-05T16:18:18.269Z,100945.75
2022-10-05T16:20:51.136Z,100949.53
2022-10-05T16:23:27.674Z,100955.50
2022-10-05T16:26:05.868Z,100947.81
2022-10-05T16:28:40.967Z,100950.22
2022-10-05T16:31:17.863Z,100954.47
2022-10-05T16:33:56.384Z,100953.28
2022-10-05T16:36:33.550Z,100949.19
2022-10-05T16:39:05.174Z,100969.69
2022-10-05T16:41:37.311Z,100970.53
2022-10-05T16:44:11.405Z,100975.16
2022-10-05T16:46:46.944Z,100979.75
2022-10-05T16:49:22.314Z,100995.16
2022-10-05T16:51:59.083Z,100989.69
2022-10-05T16:54:31.620Z,100997.19
2022-10-05T16:57:03.819Z,100991.72
2022-10-05T16:59:49.506Z,100997.72
2022-10-05T17:02:40.847Z,100993.97
2022-10-05T17:05:20.122Z,101007.81
2022-10-05T17:08:03.772Z,101007.09
2022-10-05T17:10:46.721Z,101007.28
2022-10-05T17:13:32.548Z,101011.56
2022-10-05T17:16:05.799Z,101009.00
2022-10-05T17:19:02.244Z,101017.03
2022-10-05T17:21:34.788Z,101019.75
2022-10-05T17:24:14.633Z,101025.56
2022-10-05T17:26:57.803Z,101020.94
2022-10-05T17:29:30.881Z,101021.63
2022-10-05T17:32:12.811Z,101024.69
2022-10-05T17:35:18.236Z,101018.72
2022-10-05T17:38:09.321Z,101019.59
2022-10-05T17:40:38.947Z,101019.75
2022-10-05T17:43:25.363Z,101014.63
2022-10-05T17:45:56.834Z,101019.25
2022-10-05T17:48:44.135Z,101016.19
2022-10-05T17:51:37.054Z,101019.09
2022-10-05T17:54:40.639Z,101014.13
2022-10-05T17:57:19.402Z,101009.53
2022-10-05T17:59:52.465Z,101016.38
2022-10-05T18:02:23.159Z,101003.91
2022-10-05T18:04:52.535Z,101008.19
2022-10-05T18:07:23.810Z,101011.94
2022-10-05T18:10:00.008Z,101001.31
2022-10-05T18:12:39.983Z,101004.56
2022-10-05T18:15:34.097Z,101008.19
2022-10-05T18:18:35.754Z,101001.66
2022-10-05T18:21:15.602Z,101004.91
2022-10-05T18:23:49.059Z,100997.22
2022-10-05T18:26:26.574Z,100987.28
2022-10-05T18:29:13.946Z,100989.53
2022-10-05T18:31:50.021Z,100992.44
2022-10-05T18:34:27.549Z,100988.16
2022-10-05T18:37:21.322Z,100993.44
2022-10-05T18:40:03.489Z,100983.69
2022-10-05T18:42:37.652Z,100986.06
2022-10-05T18:45:20.576Z,100984.00
2022-10-05T18:47:56.232Z,100986.41
2022-10-05T18:50:28.263Z,100982.66
2022-10-05T18:53:13.387Z,100989.16
2022-10-05T18:55:46.938Z,100975.13
2022-10-05T18:58:22.260Z,100994.78
2022-10-05T19:01:19.203Z,100978.91
2022-10-05T19:03:56.278Z,101000.44
2022-10-05T19:06:27.635Z,100993.81
2022-10-05T19:09:05.674Z,100997.88
2022-10-05T19:11:40.900Z,101003.19
2022-10-05T19:14:26.524Z,100997.22
2022-10-05T19:17:01.662Z,100987.63
2022-10-05T19:19:49.488Z,100989.69
2022-10-05T19:22:26.045Z,100993.63
2022-10-05T19:25:14.459Z,100991.59
2022-10-05T19:27:55.173Z,100996.91
2022-10-05T19:30:25.259Z,100999.13
2022-10-05T19:33:15.121Z,101007.03
2022-10-05T19:35:53.657Z,101008.69
2022-10-05T19:38:28.961Z,101013.66
2022-10-05T19:41:02.648Z,101018.97
2022-10-05T19:43:50.407Z,101026.34
2022-10-05T19:46:25.029Z,101023.06
2022-10-05T19:48:54.869Z,101019.16
2022-10-05T19:51:29.374Z,101027.72
2022-10-05T19:53:59.094Z,101037.09
2022-10-05T19:56:30.977Z,101043.41
2022-10-05T19:59:13.199Z,101042.91
2022-10-05T20:01:44.373Z,101038.66
2022-10-05T20:04:12.297Z,101035.22
2022-10-05T20:06:40.607Z,101032.81
2022-10-05T20:09:20.478Z,101040.03
2022-10-05T20:11:52.158Z,101042.22
2022-10-05T20:14:22.339Z,101045.69
2022-10-05T20:17:35.072Z,101042.91
2022-10-05T20:20:31.422Z,101034.72
2022-10-05T20:23:21.253Z,101035.91
2022-10-05T20:26:09.818Z,101037.75
2022-10-05T20:28:37.855Z,101047.16
2022-10-05T20:31:08.808Z,101050.06
2022-10-05T20:33:36.797Z,101054.84
2022-10-05T20:36:05.727Z,101054.50
2022-10-05T20:38:40.053Z,101053.81
2022-10-05T20:41:08.996Z,101053.66
2022-10-05T20:43:39.054Z,101044.78
2022-10-05T20:46:08.659Z,101058.66
2022-10-05T20:48:36.634Z,101055.38
2022-10-05T20:51:04.551Z,101048.03
2022-10-05T20:53:32.849Z,101052.13
2022-10-05T20:56:02.494Z,101060.81
2022-10-05T20:58:30.819Z,101057.22
2022-10-05T21:01:19.672Z,101065.25
2022-10-05T21:03:49.691Z,101060.66
2022-10-05T21:06:18.033Z,101063.03
2022-10-05T21:08:46.382Z,101066.31
2022-10-05T21:11:14.645Z,101073.34
2022-10-05T21:13:44.757Z,101069.06
2022-10-05T21:16:13.542Z,101076.06
2022-10-05T21:18:41.534Z,101080.84
2022-10-05T21:21:10.812Z,101087.53
2022-10-05T21:23:38.707Z,101089.91
2022-10-05T21:26:07.399Z,101089.38
2022-10-05T21:28:35.459Z,101091.59
2022-10-05T21:31:03.423Z,101093.69
2022-10-05T21:33:31.681Z,101092.16
2022-10-05T21:35:59.953Z,101094.19
2022-10-05T21:38:29.964Z,101097.75
2022-10-05T21:40:58.397Z,101091.94
2022-10-05T21:43:26.735Z,101095.19
2022-10-05T21:45:55.820Z,101097.41
2022-10-05T21:48:23.959Z,101094.72
2022-10-05T21:50:51.889Z,101102.25
2022-10-05T21:53:22.785Z,101100.41
2022-10-05T21:55:52.713Z,101101.75
2022-10-05T21:58:22.111Z,101105.19
2022-10-05T22:00:50.375Z,101108.41
2022-10-05T22:03:18.282Z,101111.19
2022-10-05T22:05:46.292Z,101105.88
2022-10-05T22:08:21.129Z,101113.41
2022-10-05T22:10:49.951Z,101116.13
2022-10-05T22:13:19.212Z,101121.94
2022-10-05T22:15:47.189Z,101124.50
2022-10-05T22:18:18.509Z,101127.41
2022-10-05T22:20:46.862Z,101133.53
2022-10-05T22:23:14.839Z,101132.00
2022-10-05T22:25:43.614Z,101139.19
2022-10-05T22:28:13.381Z,101158.16
2022-10-05T22:30:44.448Z,101161.38
2022-10-05T22:33:12.370Z,101176.78
2022-10-05T22:35:40.695Z,101196.91
2022-10-05T22:38:08.601Z,101214.63
2022-10-05T22:40:37.523Z,101209.44
2022-10-05T22:43:05.409Z,101213.97
2022-10-05T22:45:33.357Z,101210.94
2022-10-05T22:48:03.784Z,101206.72
2022-10-05T22:50:31.722Z,101210.09
2022-10-05T22:52:59.642Z,101215.94
2022-10-05T22:55:27.582Z,101227.16
2022-10-05T22:57:55.495Z,101234.34
2022-10-05T23:00:35.221Z,101233.94
2022-10-05T23:03:12.898Z,101240.50
2022-10-05T23:05:41.024Z,101251.44
2022-10-05T23:08:09.044Z,101247.53
2022-10-05T23:10:36.946Z,101241.84
2022-10-05T23:13:05.067Z,101236.09
2022-10-05T23:15:33.626Z,101241.69
2022-10-05T23:18:01.636Z,101233.09
2022-10-05T23:20:30.884Z,101239.72
2022-10-05T23:23:00.433Z,101242.34
2022-10-05T23:25:28.340Z,101239.81
2022-10-05T23:27:56.347Z,101239.19
2022-10-05T23:30:24.261Z,101242.06
2022-10-05T23:32:52.403Z,101233.47
2022-10-05T23:35:20.270Z,101249.44
2022-10-05T23:37:49.592Z,101268.84
2022-10-05T23:40:17.758Z,101265.53
2022-10-05T23:42:45.994Z,101298.00
2022-10-05T23:45:14.234Z,101298.41
2022-10-05T23:47:42.427Z,101301.47
2022-10-05T23:50:10.865Z,101312.22
2022-10-05T23:52:39.102Z,101316.69
2022-10-05T23:55:09.064Z,101319.25
2022-10-05T23:57:38.304Z,101319.09
